Time;durP1;ratioP1;P1;durP2;ratioP2;P2;SDS_P1;SDS_P2;PMS_P1;PMS_P2;Temp;Humidity;BMP_temperature;BMP_pressure;BME280_temperature;BME280_humidity;BME280_pressure;Samples;Min_cycle;Max_cycle;Signal;HPM_P1;HPM_P2
2023/01/31 00:00:01;;;;;;;12.00;4.50;;;;;;;2.80;87.94;98992.04;131298;1258;108510;-74
2023/01/31 00:03:06;;;;;;;11.70;4.70;;;;;;;2.85;87.77;98990.34;131100;1258;106730;-75
2023/01/31 00:06:15;;;;;;;10.00;4.40;;;;;;;2.90;87.49;98997.59;131047;1256;108007;-79
2023/01/31 00:09:21;;;;;;;11.10;5.10;;;;;;;2.90;87.54;98995.11;131241;1254;107431;-76
2023/01/31 00:12:27;;;;;;;8.90;4.30;;;;;;;2.88;87.69;99000.56;131081;1259;107238;-75
2023/01/31 00:15:32;;;;;;;9.30;3.60;;;;;;;2.84;87.66;99006.02;131065;1260;108704;-77
2023/01/31 00:18:38;;;;;;;9.10;4.40;;;;;;;2.83;87.58;99012.13;131027;1256;106587;-74
2023/01/31 00:21:44;;;;;;;12.30;4.40;;;;;;;2.85;87.84;99012.82;131123;1256;107505;-75
2023/01/31 00:24:50;;;;;;;11.10;4.40;;;;;;;2.86;87.96;99016.63;131082;1256;107531;-77
2023/01/31 00:27:55;;;;;;;8.30;4.10;;;;;;;2.89;87.77;99012.64;130926;1255;107512;-75
2023/01/31 00:31:01;;;;;;;9.60;4.20;;;;;;;2.86;87.75;99013.92;131013;1258;108434;-76
2023/01/31 00:34:07;;;;;;;8.50;4.00;;;;;;;2.86;87.84;99016.61;131059;1260;105734;-77
2023/01/31 00:37:13;;;;;;;9.90;3.80;;;;;;;2.87;87.80;99020.20;131116;1259;107537;-76
2023/01/31 00:40:19;;;;;;;15.30;6.30;;;;;;;2.88;87.74;99019.77;130980;1254;107237;-76
2023/01/31 00:43:25;;;;;;;11.60;4.30;;;;;;;2.92;87.75;99028.32;130953;1259;107754;-79
2023/01/31 00:46:31;;;;;;;10.10;4.30;;;;;;;2.93;87.57;99030.89;130944;1256;107338;-75
2023/01/31 00:49:36;;;;;;;8.70;3.60;;;;;;;2.91;87.51;99037.08;130915;1256;107521;-76
2023/01/31 00:52:43;;;;;;;10.90;3.50;;;;;;;2.88;87.60;99048.02;130927;1261;107914;-77
2023/01/31 00:55:49;;;;;;;12.20;4.30;;;;;;;2.91;87.55;99049.86;130913;1260;107227;-77
2023/01/31 00:58:55;;;;;;;7.80;4.90;;;;;;;2.96;87.55;99052.79;130946;1256;107589;-75
2023/01/31 01:02:01;;;;;;;9.40;4.20;;;;;;;2.96;87.51;99055.42;131059;1256;105596;-77
2023/01/31 01:05:09;;;;;;;10.70;3.90;;;;;;;2.94;87.41;99062.23;130989;1256;107497;-75
2023/01/31 01:08:14;;;;;;;9.80;3.80;;;;;;;2.92;87.70;99062.04;130926;1261;107504;-75
2023/01/31 01:11:22;;;;;;;11.50;4.00;;;;;;;2.93;87.62;99063.52;130918;1256;107669;-76
2023/01/31 01:14:28;;;;;;;9.50;3.70;;;;;;;2.95;87.30;99065.52;130923;1256;107364;-76
2023/01/31 01:17:33;;;;;;;8.50;3.50;;;;;;;2.95;87.47;99067.98;130987;1256;107435;-74
2023/01/31 01:20:39;;;;;;;8.80;4.30;;;;;;;2.95;87.55;99066.91;130926;1256;107419;-76
2023/01/31 01:23:46;;;;;;;15.90;5.00;;;;;;;2.97;87.59;99063.41;130892;1261;107532;-75
2023/01/31 01:26:52;;;;;;;7.30;3.40;;;;;;;2.97;87.50;99077.45;131020;1260;107553;-76
2023/01/31 01:29:59;;;;;;;9.90;3.20;;;;;;;2.92;87.68;99075.42;130974;1262;107660;-75
2023/01/31 01:33:04;;;;;;;10.00;3.80;;;;;;;2.88;87.61;99086.13;130991;1256;107524;-75
2023/01/31 01:36:12;;;;;;;11.30;3.80;;;;;;;2.87;87.81;99088.13;130932;1260;107554;-74
2023/01/31 01:39:18;;;;;;;11.50;4.30;;;;;;;2.87;87.78;99085.16;130920;1256;107391;-76
2023/01/31 01:42:25;;;;;;;12.20;4.00;;;;;;;2.91;87.73;99092.14;130930;1256;107448;-74
2023/01/31 01:45:32;;;;;;;9.30;3.60;;;;;;;2.90;87.61;99098.45;130940;1259;107559;-77
2023/01/31 01:48:39;;;;;;;11.80;3.70;;;;;;;2.87;87.59;99101.16;131059;1258;107522;-75
2023/01/31 01:51:48;;;;;;;10.40;3.60;;;;;;;2.85;87.68;99109.71;131215;1256;107405;-75
2023/01/31 01:54:58;;;;;;;11.60;3.90;;;;;;;2.85;87.63;99116.55;131154;1263;107404;-75
2023/01/31 01:58:07;;;;;;;11.40;4.40;;;;;;;2.90;87.58;99112.35;131159;1258;108978;-75
2023/01/31 02:01:15;;;;;;;10.50;3.70;;;;;;;2.89;87.42;99110.79;131121;1254;107534;-76
2023/01/31 02:04:30;;;;;;;10.70;3.60;;;;;;;2.87;87.37;99116.77;131169;1268;107667;-76
2023/01/31 02:07:35;;;;;;;12.20;3.80;;;;;;;2.84;87.48;99126.20;130927;1259;107408;-75
2023/01/31 02:10:45;;;;;;;12.20;3.50;;;;;;;2.85;87.50;99126.77;130936;1262;107542;-75
2023/01/31 02:13:53;;;;;;;10.50;3.80;;;;;;;2.87;87.23;99123.31;130971;1259;107490;-75
2023/01/31 02:16:59;;;;;;;12.70;3.60;;;;;;;2.89;87.04;99136.63;130997;1257;108633;-76
2023/01/31 02:20:25;;;;;;;14.40;4.00;;;;;;;2.87;86.94;99140.48;131130;1256;109763;-77
2023/01/31 02:23:52;;;;;;;13.30;3.80;;;;;;;2.86;87.07;99144.09;130981;1260;107263;-73
2023/01/31 02:27:18;;;;;;;11.80;4.00;;;;;;;2.88;86.99;99144.84;131009;1260;107602;-74
2023/01/31 02:30:57;;;;;;;12.10;2.80;;;;;;;2.92;86.36;99150.92;131086;1259;107454;-75
2023/01/31 02:34:09;;;;;;;9.30;3.60;;;;;;;2.94;86.45;99153.94;130995;1258;107514;-75
2023/01/31 02:37:26;;;;;;;10.90;3.10;;;;;;;2.91;85.80;99164.92;130986;1260;107570;-76
2023/01/31 02:40:38;;;;;;;12.00;3.00;;;;;;;2.90;86.30;99159.91;130907;1261;107330;-75
2023/01/31 02:47:25;;;;;;;13.30;3.00;;;;;;;2.86;86.06;99177.09;130970;1261;107527;-76
2023/01/31 02:50:38;;;;;;;9.00;2.80;;;;;;;2.88;85.97;99177.81;130969;1261;107619;-74
2023/01/31 02:53:49;;;;;;;12.80;3.40;;;;;;;2.89;85.90;99176.19;131039;1256;107491;-76
2023/01/31 02:56:55;;;;;;;14.30;3.10;;;;;;;2.90;85.73;99183.23;130909;1262;108504;-77
2023/01/31 03:00:02;;;;;;;10.80;3.10;;;;;;;2.89;85.29;99197.07;130932;1261;106565;-76
2023/01/31 03:03:17;;;;;;;12.20;2.90;;;;;;;2.84;85.32;99201.66;131011;1260;107537;-75
2023/01/31 03:06:58;;;;;;;11.90;2.50;;;;;;;2.88;85.62;99204.34;131134;1261;107532;-74
2023/01/31 03:10:16;;;;;;;11.50;2.80;;;;;;;2.93;85.22;99208.30;130930;1262;108346;-76
2023/01/31 03:13:34;;;;;;;9.40;2.80;;;;;;;2.94;85.03;99215.77;130986;1266;108810;-76
2023/01/31 03:20:16;;;;;;;10.60;3.00;;;;;;;2.89;84.71;99224.08;130948;1260;107646;-74
2023/01/31 03:23:28;;;;;;;12.00;2.60;;;;;;;2.86;84.78;99225.05;130946;1260;107257;-74
2023/01/31 03:26:36;;;;;;;14.40;3.40;;;;;;;2.88;85.05;99234.03;130988;1256;107841;-75
2023/01/31 03:29:43;;;;;;;17.40;4.40;;;;;;;2.93;84.91;99244.18;130914;1257;107515;-76
2023/01/31 03:32:53;;;;;;;15.50;3.10;;;;;;;2.91;84.14;99249.58;130930;1257;107751;-76
2023/01/31 03:36:05;;;;;;;13.90;3.20;;;;;;;2.88;84.57;99254.01;130999;1260;107585;-76
2023/01/31 03:39:18;;;;;;;10.50;2.80;;;;;;;2.84;84.68;99263.00;130954;1262;107955;-78
2023/01/31 03:42:30;;;;;;;11.40;2.90;;;;;;;2.80;84.72;99268.75;131267;1261;107539;-77
2023/01/31 03:45:38;;;;;;;;;;;;;;;2.82;84.82;99275.47;131023;1260;107550;-74
2023/01/31 03:48:48;;;;;;;15.20;3.60;;;;;;;2.83;84.67;99271.33;131121;1268;107574;-74
2023/01/31 03:51:59;;;;;;;14.40;2.80;;;;;;;2.86;84.97;99278.83;131049;1263;107521;-72
2023/01/31 03:55:11;;;;;;;11.60;2.90;;;;;;;2.81;84.41;99290.11;131003;1258;107948;-75
2023/01/31 03:58:19;;;;;;;10.50;3.10;;;;;;;2.77;84.44;99293.30;131009;1260;107548;-72
2023/01/31 04:01:28;;;;;;;12.10;2.90;;;;;;;2.73;84.67;99305.84;131058;1262;107545;-73
2023/01/31 04:04:40;;;;;;;9.20;2.80;;;;;;;2.72;84.80;99302.92;131185;1256;106438;-74
2023/01/31 04:07:45;;;;;;;10.10;2.60;;;;;;;2.75;84.77;99306.73;131197;1259;107629;-73
2023/01/31 04:11:00;;;;;;;9.50;2.80;;;;;;;2.77;84.06;99314.38;130996;1260;108940;-76
2023/01/31 04:14:06;;;;;;;11.40;3.50;;;;;;;2.79;84.23;99319.48;130962;1260;107385;-72
2023/01/31 04:17:12;;;;;;;10.40;2.60;;;;;;;2.79;84.30;99324.56;131104;1257;107720;-71
2023/01/31 04:20:18;;;;;;;11.90;2.80;;;;;;;2.79;84.58;99326.84;131089;1259;107875;-74
2023/01/31 04:23:25;;;;;;;10.60;2.30;;;;;;;2.79;84.52;99328.04;131054;1260;107244;-73
2023/01/31 04:26:30;;;;;;;14.30;2.30;;;;;;;2.79;84.17;99335.45;131138;1261;107471;-74
2023/01/31 04:29:36;;;;;;;12.00;3.00;;;;;;;2.73;83.82;99342.39;131158;1261;107559;-74
2023/01/31 04:32:41;;;;;;;11.90;2.80;;;;;;;2.69;84.00;99340.06;130973;1258;107453;-72
2023/01/31 04:35:47;;;;;;;10.00;3.20;;;;;;;2.66;84.03;99350.33;131002;1261;107525;-73
2023/01/31 04:38:54;;;;;;;9.80;3.10;;;;;;;2.65;84.02;99348.83;131062;1257;107607;-77
2023/01/31 04:41:59;;;;;;;11.40;3.20;;;;;;;2.67;84.08;99352.39;130962;1260;107762;-74
2023/01/31 04:45:06;;;;;;;10.20;2.80;;;;;;;2.64;84.27;99349.46;131123;1268;107632;-72
2023/01/31 04:48:12;;;;;;;13.10;2.60;;;;;;;2.60;83.79;99357.49;131130;1259;107946;-73
2023/01/31 04:51:17;;;;;;;9.90;2.90;;;;;;;2.58;84.26;99362.11;131153;1254;107534;-73
2023/01/31 04:54:23;;;;;;;10.00;2.90;;;;;;;2.60;84.29;99361.91;131170;1260;107448;-72
2023/01/31 04:57:30;;;;;;;10.10;3.10;;;;;;;2.58;84.12;99371.40;130952;1260;107921;-74
2023/01/31 05:00:35;;;;;;;11.20;2.80;;;;;;;2.53;84.22;99375.41;131046;1258;107273;-72
2023/01/31 05:03:41;;;;;;;12.70;2.70;;;;;;;2.52;84.34;99376.89;131025;1258;107641;-74
2023/01/31 05:06:48;;;;;;;13.30;3.20;;;;;;;2.49;84.43;99382.60;131201;1258;107708;-76
2023/01/31 05:09:53;;;;;;;11.90;3.20;;;;;;;2.48;84.46;99381.79;131147;1259;107613;-73
2023/01/31 05:12:58;;;;;;;10.00;3.70;;;;;;;2.50;84.42;99380.95;130969;1259;107541;-73
2023/01/31 05:16:09;;;;;;;9.70;2.90;;;;;;;2.46;84.09;99396.70;131128;1259;108915;-73
2023/01/31 05:19:15;;;;;;;11.60;2.90;;;;;;;2.43;84.38;99390.83;131067;1258;107423;-72
2023/01/31 05:22:21;;;;;;;12.00;2.80;;;;;;;2.40;84.19;99397.77;131022;1258;105631;-74
2023/01/31 05:25:27;;;;;;;10.80;2.60;;;;;;;2.40;84.28;99401.44;130987;1265;107391;-73
2023/01/31 05:28:32;;;;;;;14.40;3.90;;;;;;;2.40;84.25;99405.23;131002;1258;107478;-73
2023/01/31 05:31:38;;;;;;;12.10;3.10;;;;;;;2.42;84.13;99413.02;130961;1261;107574;-73
2023/01/31 05:34:43;;;;;;;7.20;2.40;;;;;;;2.40;84.09;99417.73;131016;1259;108180;-73
2023/01/31 05:37:49;;;;;;;9.00;2.60;;;;;;;2.41;84.04;99419.60;130944;1263;107542;-74
2023/01/31 05:40:54;;;;;;;9.90;2.70;;;;;;;2.39;83.88;99430.08;130991;1259;107580;-73
2023/01/31 05:44:00;;;;;;;11.10;3.30;;;;;;;2.39;83.94;99436.56;130946;1266;107538;-75
2023/01/31 05:47:05;;;;;;;13.40;3.60;;;;;;;2.46;84.00;99444.50;131055;1260;107579;-72
2023/01/31 05:50:13;;;;;;;13.80;3.40;;;;;;;2.47;83.58;99454.71;131029;1264;107558;-73
2023/01/31 05:53:19;;;;;;;12.60;3.10;;;;;;;2.45;83.60;99464.56;131036;1261;107507;-73
2023/01/31 05:56:25;;;;;;;11.00;3.00;;;;;;;2.46;83.60;99473.44;131056;1260;107480;-73
2023/01/31 05:59:32;;;;;;;7.90;2.30;;;;;;;2.44;83.47;99483.21;131240;1258;107291;-74
2023/01/31 06:02:38;;;;;;;9.70;3.20;;;;;;;2.43;83.34;99488.63;131063;1262;107385;-73
2023/01/31 06:05:43;;;;;;;10.10;3.20;;;;;;;2.43;83.09;99496.69;131017;1263;107555;-73
2023/01/31 06:08:49;;;;;;;12.40;2.70;;;;;;;2.46;83.05;99504.69;131007;1267;107538;-74
2023/01/31 06:11:54;;;;;;;9.80;2.60;;;;;;;2.46;82.93;99511.73;130962;1258;107545;-74
2023/01/31 06:15:00;;;;;;;6.20;2.50;;;;;;;2.41;82.63;99513.34;131000;1262;107542;-72
2023/01/31 06:18:05;;;;;;;11.70;2.60;;;;;;;2.34;82.83;99519.44;130993;1260;107510;-73
2023/01/31 06:21:11;;;;;;;8.60;2.70;;;;;;;2.31;82.95;99526.73;130931;1269;107551;-73
2023/01/31 06:24:16;;;;;;;10.30;2.50;;;;;;;2.32;82.98;99531.87;130931;1262;107559;-73
2023/01/31 06:27:22;;;;;;;11.50;3.40;;;;;;;2.38;82.96;99538.86;130261;1268;107542;-73
2023/01/31 06:30:27;;;;;;;8.60;3.00;;;;;;;2.41;82.69;99546.00;130984;1261;107511;-73
2023/01/31 06:33:33;;;;;;;32.50;14.10;;;;;;;2.43;82.62;99552.52;131111;1261;108297;-72
2023/01/31 06:36:39;;;;;;;12.70;3.60;;;;;;;2.46;82.80;99553.30;130961;1261;107614;-73
2023/01/31 06:39:45;;;;;;;9.50;3.40;;;;;;;2.45;82.31;99557.77;130980;1262;107947;-75
2023/01/31 06:42:51;;;;;;;9.70;2.90;;;;;;;2.41;82.08;99562.27;130301;1261;108197;-73
2023/01/31 06:45:56;;;;;;;8.00;2.20;;;;;;;2.37;81.81;99566.10;130954;1260;107491;-73
2023/01/31 06:49:04;;;;;;;7.40;2.50;;;;;;;2.35;81.69;99572.72;130978;1260;108747;-76
2023/01/31 06:52:12;;;;;;;10.50;2.40;;;;;;;2.40;81.95;99575.56;130950;1257;107293;-72
2023/01/31 06:55:17;;;;;;;8.60;2.90;;;;;;;2.46;81.53;99581.35;130834;1257;108724;-71
2023/01/31 06:58:23;;;;;;;11.40;2.80;;;;;;;2.48;81.44;99587.23;131115;1260;108077;-72
2023/01/31 07:01:28;;;;;;;10.80;3.40;;;;;;;2.44;81.24;99586.65;130776;1262;107824;-73
2023/01/31 07:04:34;;;;;;;12.30;2.50;;;;;;;2.42;81.29;99585.19;131021;1262;106727;-73
2023/01/31 07:07:40;;;;;;;6.90;2.20;;;;;;;2.40;81.30;99588.55;131069;1263;107528;-72
2023/01/31 07:10:47;;;;;;;11.80;3.20;;;;;;;2.41;81.20;99589.15;130671;1267;107442;-73
2023/01/31 07:13:53;;;;;;;15.90;3.40;;;;;;;2.49;81.38;99589.91;131119;1264;107546;-73
2023/01/31 07:16:58;;;;;;;13.40;3.30;;;;;;;2.58;81.32;99591.21;130991;1254;107550;-74
2023/01/31 07:20:04;;;;;;;12.60;3.30;;;;;;;2.59;80.46;99600.41;131042;1258;107564;-72
2023/01/31 07:23:10;;;;;;;11.50;3.10;;;;;;;2.53;80.52;99600.66;131186;1262;107524;-71
2023/01/31 07:26:16;;;;;;;10.60;3.30;;;;;;;2.49;80.33;99607.85;131045;1261;106401;-74
2023/01/31 07:29:21;;;;;;;11.40;3.60;;;;;;;2.43;80.37;99615.15;131033;1269;108865;-73
2023/01/31 07:32:30;;;;;;;10.70;2.60;;;;;;;2.45;80.66;99619.05;131141;1258;107574;-73
2023/01/31 07:35:36;;;;;;;12.20;3.20;;;;;;;2.50;80.82;99620.57;131312;1256;107243;-72
2023/01/31 07:38:42;;;;;;;13.50;3.20;;;;;;;2.59;80.25;99629.75;130953;1257;107570;-72
2023/01/31 07:41:47;;;;;;;11.90;3.70;;;;;;;2.64;80.39;99633.05;131140;1260;107549;-72
2023/01/31 07:44:52;;;;;;;68.70;21.10;;;;;;;2.64;80.43;99634.41;131152;1259;107563;-73
2023/01/31 07:48:00;;;;;;;14.50;4.90;;;;;;;2.64;79.86;99643.92;130771;1260;107541;-72
2023/01/31 07:51:06;;;;;;;13.50;3.60;;;;;;;2.61;79.78;99648.01;131084;1254;107635;-72
2023/01/31 07:54:12;;;;;;;10.20;3.90;;;;;;;2.59;80.24;99645.38;131001;1266;105551;-72
2023/01/31 07:57:18;;;;;;;11.10;3.80;;;;;;;2.66;80.62;99647.07;130991;1258;108586;-73
2023/01/31 08:03:45;;;;;;;22.00;8.40;;;;;;;2.87;79.97;99654.10;130911;1258;106938;-74
2023/01/31 08:06:53;;;;;;;12.90;4.00;;;;;;;2.93;79.09;99654.15;131029;1260;107555;-73
2023/01/31 08:09:59;;;;;;;13.40;4.70;;;;;;;2.95;79.15;99656.23;131064;1255;107435;-73
2023/01/31 08:13:07;;;;;;;12.00;3.50;;;;;;;2.96;78.63;99658.83;130726;1261;107010;-72
2023/01/31 08:16:21;;;;;;;12.90;3.90;;;;;;;2.92;78.49;99669.11;130825;1259;106338;-75
2023/01/31 08:19:27;;;;;;;23.70;12.30;;;;;;;2.95;78.72;99681.61;130907;1258;107548;-76
2023/01/31 08:22:33;;;;;;;14.70;6.50;;;;;;;2.97;78.47;99691.44;131295;1258;107257;-74
2023/01/31 08:25:40;;;;;;;20.00;11.60;;;;;;;2.94;78.25;99687.64;131260;1254;107903;-74
2023/01/31 08:28:47;;;;;;;134.30;60.70;;;;;;;3.00;78.84;99691.41;131106;1258;107495;-72
2023/01/31 08:31:53;;;;;;;12.90;4.10;;;;;;;3.06;78.72;99695.18;131187;1257;107354;-74
2023/01/31 08:34:58;;;;;;;12.40;3.80;;;;;;;3.14;78.58;99700.16;131198;1259;107523;-74
2023/01/31 08:38:04;;;;;;;10.90;4.20;;;;;;;3.19;77.94;99697.15;131137;1257;107514;-73
2023/01/31 08:41:10;;;;;;;11.20;3.90;;;;;;;3.22;76.71;99704.82;131221;1254;107438;-74
2023/01/31 08:44:16;;;;;;;15.10;7.90;;;;;;;3.12;77.06;99698.04;131322;1254;107903;-75
2023/01/31 08:47:22;;;;;;;13.20;4.20;;;;;;;3.15;77.85;99699.38;131053;1266;109737;-72
2023/01/31 08:50:31;;;;;;;11.90;4.40;;;;;;;3.19;77.66;99695.02;131131;1260;107317;-73
2023/01/31 08:53:39;;;;;;;21.90;8.40;;;;;;;3.23;77.90;99695.56;131104;1259;108704;-73
2023/01/31 08:56:44;;;;;;;18.30;7.90;;;;;;;3.26;77.68;99699.02;130979;1254;107514;-73
2023/01/31 08:59:52;;;;;;;13.40;5.10;;;;;;;3.32;78.00;99697.48;130976;1254;107978;-73
2023/01/31 09:02:59;;;;;;;12.10;5.10;;;;;;;3.29;76.65;99696.38;130808;1261;108105;-72
2023/01/31 09:06:07;;;;;;;9.70;4.00;;;;;;;3.22;76.95;99691.99;130951;1269;106747;-74
2023/01/31 09:09:13;;;;;;;13.90;4.80;;;;;;;3.16;76.59;99694.19;130962;1260;107240;-73
2023/01/31 09:12:18;;;;;;;12.60;4.20;;;;;;;3.16;75.98;99704.05;131015;1261;105540;-72
2023/01/31 09:15:25;;;;;;;15.00;5.10;;;;;;;3.20;75.89;99702.91;131083;1259;109031;-73
2023/01/31 09:18:32;;;;;;;11.00;3.90;;;;;;;3.29;75.55;99711.83;131146;1261;108663;-73
2023/01/31 09:21:38;;;;;;;61.80;28.20;;;;;;;3.41;76.36;99707.00;131194;1259;107555;-73
2023/01/31 09:24:44;;;;;;;15.90;6.10;;;;;;;3.60;75.83;99711.15;131223;1254;106490;-74
2023/01/31 09:27:51;;;;;;;12.90;3.60;;;;;;;3.74;75.46;99723.01;131210;1255;107377;-74
2023/01/31 09:31:01;;;;;;;9.40;3.80;;;;;;;3.77;73.07;99727.09;131289;1254;108704;-73
2023/01/31 09:34:07;;;;;;;11.10;3.60;;;;;;;3.74;73.51;99714.25;131198;1258;107539;-72
2023/01/31 09:37:12;;;;;;;10.80;4.60;;;;;;;3.71;72.53;99727.17;130999;1258;107257;-73
2023/01/31 09:40:23;;;;;;;26.40;11.80;;;;;;;3.66;72.09;99720.55;131022;1254;107892;-76
2023/01/31 09:43:34;;;;;;;9.70;4.20;;;;;;;3.71;73.27;99730.69;131255;1260;107558;-72
2023/01/31 09:46:44;;;;;;;11.10;4.00;;;;;;;3.71;72.91;99733.52;131112;1261;107553;-72
2023/01/31 09:49:54;;;;;;;10.30;4.10;;;;;;;3.74;73.66;99734.27;131313;1263;107537;-72
2023/01/31 09:53:00;;;;;;;13.10;4.80;;;;;;;3.77;72.78;99736.73;131083;1259;107564;-74
2023/01/31 09:56:20;;;;;;;12.40;5.40;;;;;;;3.78;73.41;99736.80;131033;1262;107498;-73
2023/01/31 09:59:37;;;;;;;10.20;5.10;;;;;;;3.76;71.60;99745.40;131361;1254;108016;-73
2023/01/31 10:02:55;;;;;;;9.90;4.30;;;;;;;3.75;71.77;99752.52;131331;1257;107415;-73
2023/01/31 10:06:10;;;;;;;12.10;4.30;;;;;;;3.73;72.15;99753.16;132794;1254;106524;-74
2023/01/31 10:09:23;;;;;;;12.40;3.30;;;;;;;3.73;72.71;99751.29;134810;1254;107514;-74
2023/01/31 10:12:34;;;;;;;13.60;4.30;;;;;;;3.69;72.02;99764.41;134837;1253;107596;-73
2023/01/31 10:15:43;;;;;;;15.90;5.60;;;;;;;3.59;71.93;99758.73;134820;1253;107551;-73
2023/01/31 10:18:54;;;;;;;7.80;3.90;;;;;;;3.62;72.40;99757.98;134372;1254;107531;-73
2023/01/31 10:22:08;;;;;;;10.30;4.30;;;;;;;3.64;71.22;99755.34;131333;1254;107689;-75
2023/01/31 10:25:25;;;;;;;9.90;4.00;;;;;;;3.70;71.84;99749.57;131385;1254;107386;-72
2023/01/31 10:28:38;;;;;;;11.70;5.10;;;;;;;3.76;71.67;99751.75;131147;1259;107403;-72
2023/01/31 10:31:50;;;;;;;10.10;4.60;;;;;;;3.87;72.55;99753.17;131123;1253;107589;-72
2023/01/31 10:34:59;;;;;;;11.60;5.20;;;;;;;3.91;71.03;99756.86;131085;1255;107867;-72
2023/01/31 10:38:14;;;;;;;11.30;4.00;;;;;;;3.99;71.76;99758.91;131105;1254;107526;-71
2023/01/31 10:41:25;;;;;;;8.80;3.70;;;;;;;4.01;72.18;99755.05;131077;1254;107475;-73
2023/01/31 10:44:41;;;;;;;14.80;5.30;;;;;;;3.98;70.66;99755.67;131246;1256;107419;-75
2023/01/31 10:47:51;;;;;;;419.60;161.60;;;;;;;3.92;70.83;99752.00;130543;1253;107275;-71
2023/01/31 10:51:07;;;;;;;47.90;19.40;;;;;;;3.97;70.81;99751.69;131138;1261;107611;-71
2023/01/31 10:54:24;;;;;;;37.10;13.70;;;;;;;4.05;70.62;99753.35;131115;1258;107650;-73
2023/01/31 10:57:31;;;;;;;29.30;9.80;;;;;;;3.99;69.55;99751.66;131051;1253;107288;-73
2023/01/31 11:00:36;;;;;;;295.80;105.70;;;;;;;3.94;69.45;99752.77;131015;1254;107398;-73
2023/01/31 11:03:49;;;;;;;52.10;26.10;;;;;;;3.91;68.34;99749.35;131076;1259;107923;-76
2023/01/31 11:06:57;;;;;;;168.60;62.10;;;;;;;3.89;68.32;99757.77;131109;1254;107513;-73
2023/01/31 11:10:22;;;;;;;19.40;7.40;;;;;;;3.89;67.52;99752.80;131044;1261;107551;-74
2023/01/31 11:13:28;;;;;;;19.70;7.00;;;;;;;3.90;68.02;99741.79;131023;1258;107387;-73
2023/01/31 11:16:37;;;;;;;16.20;5.50;;;;;;;4.00;68.93;99748.44;131099;1258;106810;-73
2023/01/31 11:19:48;;;;;;;6.70;2.20;;;;;;;4.13;68.15;99748.77;131064;1254;107991;-73
2023/01/31 11:22:57;;;;;;;9.30;3.00;;;;;;;4.12;67.19;99740.26;130965;1254;108823;-74
2023/01/31 11:26:03;;;;;;;5.30;2.00;;;;;;;4.14;65.78;99746.92;131167;1254;107549;-73
2023/01/31 11:29:21;;;;;;;8.00;2.60;;;;;;;4.17;66.33;99746.40;130991;1260;107577;-72
2023/01/31 11:32:30;;;;;;;6.50;3.10;;;;;;;4.17;66.46;99747.79;131036;1259;107476;-73
2023/01/31 11:35:36;;;;;;;8.20;2.90;;;;;;;4.13;66.31;99752.48;130959;1254;107576;-73
2023/01/31 11:38:43;;;;;;;7.60;3.00;;;;;;;4.09;65.22;99752.84;130938;1255;107397;-72
2023/01/31 11:41:50;;;;;;;8.70;3.20;;;;;;;4.00;66.67;99754.72;131027;1254;107577;-73
2023/01/31 11:45:01;;;;;;;6.80;3.20;;;;;;;4.07;67.16;99748.73;130971;1258;107321;-74
2023/01/31 11:48:17;;;;;;;10.60;4.00;;;;;;;4.10;66.99;99748.98;131147;1258;107950;-76
2023/01/31 11:51:30;;;;;;;9.10;4.00;;;;;;;4.14;67.26;99752.41;130997;1258;107537;-73
2023/01/31 11:54:36;;;;;;;8.40;4.80;;;;;;;4.09;66.99;99746.09;130969;1259;107530;-74
2023/01/31 11:57:43;;;;;;;9.10;3.90;;;;;;;3.99;65.96;99740.62;131200;1266;109307;-72
2023/01/31 12:00:56;;;;;;;11.20;4.20;;;;;;;3.86;65.90;99739.71;131139;1260;107491;-73
2023/01/31 12:04:04;;;;;;;9.40;3.20;;;;;;;3.68;64.61;99739.05;131000;1259;107557;-76
2023/01/31 12:07:24;;;;;;;12.00;5.00;;;;;;;3.51;65.26;99733.32;131167;1254;107556;-73
2023/01/31 12:10:45;;;;;;;10.80;3.70;;;;;;;3.36;66.12;99732.92;131191;1255;107451;-72
2023/01/31 12:13:53;;;;;;;9.70;3.90;;;;;;;3.36;67.59;99730.09;131166;1257;107440;-73
2023/01/31 12:17:00;;;;;;;10.60;5.30;;;;;;;3.48;67.92;99729.17;131164;1254;107512;-73
2023/01/31 12:20:18;;;;;;;14.00;4.90;;;;;;;3.58;67.18;99722.07;131161;1259;107522;-71
2023/01/31 12:23:34;;;;;;;11.80;4.60;;;;;;;3.65;67.00;99719.57;131071;1259;107270;-73
2023/01/31 12:26:47;;;;;;;11.50;5.10;;;;;;;3.55;65.83;99718.27;131242;1254;107302;-73
2023/01/31 12:30:11;;;;;;;12.30;4.80;;;;;;;3.41;66.68;99708.55;131113;1254;107415;-71
2023/01/31 12:33:30;;;;;;;11.70;5.60;;;;;;;3.40;67.66;99709.88;131041;1255;107568;-73
2023/01/31 12:36:54;;;;;;;10.40;4.50;;;;;;;3.47;67.71;99707.43;131236;1256;107534;-72
2023/01/31 12:40:22;;;;;;;11.90;5.20;;;;;;;3.52;67.59;99704.69;131231;1259;107534;-73
2023/01/31 12:43:43;;;;;;;11.70;4.70;;;;;;;3.51;67.37;99704.61;131167;1254;107271;-72
2023/01/31 12:47:04;;;;;;;10.90;3.90;;;;;;;3.45;67.88;99702.68;131136;1260;107582;-73
2023/01/31 12:50:25;;;;;;;12.00;4.10;;;;;;;3.43;67.98;99701.58;131338;1258;107900;-73
2023/01/31 12:53:44;;;;;;;11.60;4.40;;;;;;;3.46;68.37;99701.67;131121;1254;107535;-73
2023/01/31 12:56:59;;;;;;;10.80;4.70;;;;;;;3.49;68.06;99696.88;131273;1259;105988;-73
2023/01/31 13:00:22;;;;;;;14.70;4.40;;;;;;;3.49;68.18;99695.10;131102;1254;107935;-74
2023/01/31 13:03:40;;;;;;;12.80;4.60;;;;;;;3.49;68.01;99698.60;131061;1258;107544;-72
2023/01/31 13:06:51;;;;;;;9.90;4.50;;;;;;;3.57;68.58;99695.38;131136;1254;107410;-73
2023/01/31 13:10:00;;;;;;;14.60;5.20;;;;;;;3.69;68.35;99690.95;131058;1260;107535;-72
2023/01/31 13:13:11;;;;;;;11.00;4.10;;;;;;;3.75;67.96;99684.59;131116;1253;107236;-73
2023/01/31 13:16:21;;;;;;;11.40;4.40;;;;;;;3.83;68.01;99682.09;131254;1261;107069;-75
2023/01/31 13:19:36;;;;;;;11.90;4.10;;;;;;;3.94;68.20;99683.23;131240;1253;107529;-74
2023/01/31 13:22:48;;;;;;;8.90;4.10;;;;;;;3.95;67.03;99683.91;131415;1257;107569;-71
2023/01/31 13:25:57;;;;;;;9.90;3.80;;;;;;;3.83;67.30;99681.89;131170;1258;107576;-75
2023/01/31 13:29:06;;;;;;;9.70;4.00;;;;;;;3.81;67.23;99680.80;130995;1255;107620;-73
2023/01/31 13:32:18;;;;;;;10.60;4.70;;;;;;;3.81;67.04;99684.52;131381;1259;107516;-75
2023/01/31 13:35:25;;;;;;;;;;;;;;;3.81;67.09;99682.58;131177;1257;107455;-70
2023/01/31 13:38:37;;;;;;;8.70;3.90;;;;;;;3.83;67.65;99679.26;131197;1253;107623;-72
2023/01/31 13:41:42;;;;;;;7.60;3.60;;;;;;;3.87;67.52;99675.77;131078;1254;107669;-71
2023/01/31 13:44:49;;;;;;;9.40;3.60;;;;;;;3.85;67.31;99667.77;131140;1255;105847;-74
2023/01/31 13:48:02;;;;;;;8.50;3.70;;;;;;;3.78;66.82;99662.92;131313;1255;107573;-73
2023/01/31 13:51:16;;;;;;;12.00;3.80;;;;;;;3.70;66.96;99654.22;131303;1258;107519;-70
2023/01/31 13:54:27;;;;;;;10.00;3.80;;;;;;;3.65;67.14;99652.86;130989;1258;107895;-72
2023/01/31 13:57:37;;;;;;;11.10;5.80;;;;;;;3.63;67.76;99657.98;130995;1254;107349;-72
2023/01/31 14:00:45;;;;;;;10.30;4.80;;;;;;;3.62;67.53;99662.97;130942;1258;105888;-73
2023/01/31 14:04:28;;;;;;;12.30;4.10;;;;;;;3.55;67.69;99660.34;131091;1258;107260;-72
2023/01/31 14:07:35;;;;;;;14.80;5.90;;;;;;;3.46;67.42;99656.19;130924;1254;108154;-77
2023/01/31 14:10:44;;;;;;;15.20;5.40;;;;;;;3.39;67.56;99653.23;131192;1258;108696;-75
2023/01/31 14:14:10;;;;;;;12.50;5.40;;;;;;;3.38;67.96;99653.14;130975;1255;107592;-75
2023/01/31 14:17:36;;;;;;;15.50;5.70;;;;;;;3.41;67.97;99648.98;131217;1260;107532;-76
2023/01/31 14:20:41;;;;;;;12.50;5.50;;;;;;;3.42;68.09;99645.61;131185;1258;108692;-74
2023/01/31 14:23:48;;;;;;;13.10;4.40;;;;;;;3.44;68.06;99640.54;130985;1258;107241;-75
2023/01/31 14:26:54;;;;;;;12.40;5.40;;;;;;;3.41;67.77;99635.63;131041;1270;107565;-75
2023/01/31 14:30:21;;;;;;;11.70;4.20;;;;;;;3.37;68.04;99628.61;131048;1254;107375;-75
2023/01/31 14:33:29;;;;;;;9.70;4.40;;;;;;;3.34;68.20;99623.03;131416;1259;107946;-77
2023/01/31 14:36:56;;;;;;;40.60;24.20;;;;;;;3.33;68.23;99622.91;131054;1254;107326;-75
2023/01/31 14:40:16;;;;;;;14.00;5.40;;;;;;;3.30;68.16;99621.36;131174;1259;107672;-75
2023/01/31 14:43:36;;;;;;;12.00;5.00;;;;;;;3.19;67.78;99617.16;131160;1259;107584;-74